sensor_id;sensor_type;location;lat;lon;timestamp;pressure;altitude;pressure_sealevel;temperature;humidity
69593;BME280;56796;50.122;14.468;2023-07-31T00:15:46;978.44;;;15.48;88.56
69593;BME280;56796;50.122;14.468;2023-07-31T00:35:13;978.33;;;15.33;88.25
69593;BME280;56796;50.122;14.468;2023-07-31T00:54:39;978.41;;;15.43;87.3
69593;BME280;56796;50.122;14.468;2023-07-31T01:14:07;978.34;;;15.44;85.79
69593;BME280;56796;50.122;14.468;2023-07-31T01:33:34;978.19;;;15.22;86.86
69593;BME280;56796;50.122;14.468;2023-07-31T01:53:00;977.93;;;15.24;85.33
69593;BME280;56796;50.122;14.468;2023-07-31T02:12:27;977.83;;;14.78;87.99
69593;BME280;56796;50.122;14.468;2023-07-31T02:31:53;977.85;;;14.52;88.59
69593;BME280;56796;50.122;14.468;2023-07-31T02:51:19;977.86;;;14.59;88.58
69593;BME280;56796;50.122;14.468;2023-07-31T03:10:45;977.86;;;14.58;88.5
69593;BME280;56796;50.122;14.468;2023-07-31T03:30:12;977.85;;;14.64;87.8
69593;BME280;56796;50.122;14.468;2023-07-31T03:49:40;977.9;;;14.78;85.24
69593;BME280;56796;50.122;14.468;2023-07-31T04:09:06;977.9;;;14.99;83.05
69593;BME280;56796;50.122;14.468;2023-07-31T04:28:35;977.87;;;15.28;82.24
69593;BME280;56796;50.122;14.468;2023-07-31T04:48:03;977.87;;;15.33;82.31
69593;BME280;56796;50.122;14.468;2023-07-31T05:07:30;977.91;;;15.6;82.33
69593;BME280;56796;50.122;14.468;2023-07-31T05:26:57;977.96;;;15.69;81.97
69593;BME280;56796;50.122;14.468;2023-07-31T05:46:26;977.88;;;15.99;81.24
69593;BME280;56796;50.122;14.468;2023-07-31T06:05:55;977.73;;;16.49;79.37
69593;BME280;56796;50.122;14.468;2023-07-31T06:25:26;977.53;;;17.02;76.74
69593;BME280;56796;50.122;14.468;2023-07-31T06:44:51;977.43;;;17.46;74.7
69593;BME280;56796;50.122;14.468;2023-07-31T07:04:11;977.46;;;17.73;74.34
69593;BME280;56796;50.122;14.468;2023-07-31T07:23:40;977.38;;;18.11;71.3
69593;BME280;56796;50.122;14.468;2023-07-31T07:43:07;977.42;;;18.18;71.96
69593;BME280;56796;50.122;14.468;2023-07-31T08:02:35;977.52;;;18.45;70.94
69593;BME280;56796;50.122;14.468;2023-07-31T08:22:03;977.57;;;18.56;70.31
69593;BME280;56796;50.122;14.468;2023-07-31T08:41:28;977.61;;;18.25;71.76
69593;BME280;56796;50.122;14.468;2023-07-31T09:00:55;977.62;;;18.43;71.98
69593;BME280;56796;50.122;14.468;2023-07-31T09:20:22;977.58;;;18.73;72.02
69593;BME280;56796;50.122;14.468;2023-07-31T09:39:51;977.52;;;19.19;70.92
69593;BME280;56796;50.122;14.468;2023-07-31T09:59:21;977.17;;;20.64;67.99
69593;BME280;56796;50.122;14.468;2023-07-31T10:18:56;976.76;;;22.21;63.33
69593;BME280;56796;50.122;14.468;2023-07-31T10:38:27;976.48;;;22.95;61.08
69593;BME280;56796;50.122;14.468;2023-07-31T10:57:57;976.35;;;23.05;59.32
69593;BME280;56796;50.122;14.468;2023-07-31T11:17:25;976.08;;;24.26;57
69593;BME280;56796;50.122;14.468;2023-07-31T11:36:53;976.06;;;22.87;58.54
69593;BME280;56796;50.122;14.468;2023-07-31T11:56:16;975.86;;;22.71;58.65
69593;BME280;56796;50.122;14.468;2023-07-31T12:15:44;975.61;;;23.39;56.89
69593;BME280;56796;50.122;14.468;2023-07-31T12:35:09;975.45;;;23.56;56.85
69593;BME280;56796;50.122;14.468;2023-07-31T12:54:39;975.28;;;23.77;54.91
69593;BME280;56796;50.122;14.468;2023-07-31T13:14:09;975.17;;;23.95;54.54
69593;BME280;56796;50.122;14.468;2023-07-31T13:33:31;974.98;;;24.02;53.67
69593;BME280;56796;50.122;14.468;2023-07-31T13:52:59;974.66;;;24.58;52.96
69593;BME280;56796;50.122;14.468;2023-07-31T14:12:25;974.63;;;23.74;52.83
69593;BME280;56796;50.122;14.468;2023-07-31T14:31:52;974.33;;;23.96;52.89
69593;BME280;56796;50.122;14.468;2023-07-31T14:51:16;974.09;;;23.24;54.12
69593;BME280;56796;50.122;14.468;2023-07-31T15:10:43;973.62;;;23.31;53.31
69593;BME280;56796;50.122;14.468;2023-07-31T15:30:11;973.4;;;23.8;52.53
69593;BME280;56796;50.122;14.468;2023-07-31T15:49:39;973.53;;;23.69;51.49
69593;BME280;56796;50.122;14.468;2023-07-31T16:09:06;973.56;;;23.37;52.97
69593;BME280;56796;50.122;14.468;2023-07-31T16:28:30;973.58;;;23.02;54.54
69593;BME280;56796;50.122;14.468;2023-07-31T16:47:57;973.45;;;22.84;55.05
69593;BME280;56796;50.122;14.468;2023-07-31T17:07:23;973.39;;;22.73;56.67
69593;BME280;56796;50.122;14.468;2023-07-31T17:26:49;973.27;;;22.56;57.7
69593;BME280;56796;50.122;14.468;2023-07-31T17:46:15;973.11;;;22.4;57.22
69593;BME280;56796;50.122;14.468;2023-07-31T18:05:42;972.97;;;22.24;58.95
69593;BME280;56796;50.122;14.468;2023-07-31T18:25:08;973.04;;;21.94;59.1
69593;BME280;56796;50.122;14.468;2023-07-31T18:44:33;972.97;;;21.64;60.03
69593;BME280;56796;50.122;14.468;2023-07-31T19:04:00;972.88;;;21.5;60.5
69593;BME280;56796;50.122;14.468;2023-07-31T19:23:27;972.84;;;21.61;60.52
69593;BME280;56796;50.122;14.468;2023-07-31T19:42:55;972.54;;;21.46;61.35
69593;BME280;56796;50.122;14.468;2023-07-31T20:02:22;972.44;;;21.3;62.05
69593;BME280;56796;50.122;14.468;2023-07-31T20:21:50;972.23;;;21.16;62.55
69593;BME280;56796;50.122;14.468;2023-07-31T20:41:17;972.04;;;21.12;62.63
69593;BME280;56796;50.122;14.468;2023-07-31T21:00:44;971.84;;;20.91;63.9
69593;BME280;56796;50.122;14.468;2023-07-31T21:20:11;971.67;;;20.68;64.63
69593;BME280;56796;50.122;14.468;2023-07-31T21:39:38;971.57;;;20.62;64.86
69593;BME280;56796;50.122;14.468;2023-07-31T21:59:05;971.37;;;20.45;65.77
69593;BME280;56796;50.122;14.468;2023-07-31T22:18:33;971.17;;;20.29;66.64
69593;BME280;56796;50.122;14.468;2023-07-31T22:37:58;971.03;;;20;67.95
69593;BME280;56796;50.122;14.468;2023-07-31T22:57:25;970.8;;;19.87;68.12
69593;BME280;56796;50.122;14.468;2023-07-31T23:16:52;970.8;;;19.84;68.31
69593;BME280;56796;50.122;14.468;2023-07-31T23:36:20;970.78;;;19.5;70.63
69593;BME280;56796;50.122;14.468;2023-07-31T23:55:46;970.78;;;19.16;74.12
